Time,TemperatureF,DewpointF,PressureIn,WindDirection,WindDirectionDegrees,WindSpeedMPH,WindSpeedGustMPH,Humidity,HourlyPrecipIn,Conditions,Clouds,dailyrainin,SoftwareType,DateUTC
2013-02-25 00:01:00,28.0,24.0,29.69,North,0,1.0,5.0,83,0.00,,,0.00,,2013-02-25 07:01:00,
2013-02-25 00:11:00,29.0,24.0,29.69,ENE,67,1.0,1.0,80,0.00,,,0.00,,2013-02-25 07:11:00,
2013-02-25 00:21:00,29.0,24.0,29.69,ENE,67,1.0,1.0,80,0.00,,,0.00,,2013-02-25 07:21:00,
2013-02-25 00:31:00,29.0,23.0,29.69,ESE,113,0.0,1.0,77,0.00,,,0.00,,2013-02-25 07:31:00,
2013-02-25 00:41:00,29.0,23.0,29.69,ESE,113,0.0,1.0,77,0.00,,,0.00,,2013-02-25 07:41:00,
2013-02-25 00:52:00,29.0,22.0,29.70,ESE,113,0.0,0.0,75,0.00,,,0.00,,2013-02-25 07:52:00,
2013-02-25 01:01:00,30.0,23.0,29.70,West,273,1.0,2.0,75,0.00,,,0.00,,2013-02-25 08:01:00,
2013-02-25 01:11:00,30.0,22.0,29.71,WSW,258,1.0,2.0,73,0.00,,,0.00,,2013-02-25 08:11:00,
2013-02-25 01:21:00,30.0,22.0,29.71,WSW,258,1.0,2.0,73,0.00,,,0.00,,2013-02-25 08:21:00,
2013-02-25 01:31:00,30.0,22.0,29.71,West,277,1.0,2.0,73,0.00,,,0.00,,2013-02-25 08:31:00,
2013-02-25 01:41:00,30.0,22.0,29.71,West,277,1.0,2.0,73,0.00,,,0.00,,2013-02-25 08:41:00,
2013-02-25 01:52:00,30.0,21.0,29.72,WNW,299,4.0,5.0,70,0.00,,,0.00,,2013-02-25 08:52:00,
2013-02-25 02:01:00,30.0,19.0,29.72,WNW,302,4.0,7.0,63,0.00,,,0.00,,2013-02-25 09:01:00,
2013-02-25 02:12:00,30.0,19.0,29.72,WNW,302,4.0,7.0,63,0.00,,,0.00,,2013-02-25 09:12:00,
2013-02-25 02:21:00,30.0,19.0,29.72,North,3,1.0,5.0,63,0.00,,,0.00,,2013-02-25 09:21:00,
2013-02-25 02:31:00,30.0,20.0,29.73,North,359,1.0,3.0,66,0.00,,,0.00,,2013-02-25 09:31:00,
2013-02-25 02:41:00,30.0,20.0,29.73,North,359,1.0,3.0,66,0.00,,,0.00,,2013-02-25 09:41:00,
2013-02-25 02:52:00,30.0,20.0,29.73,North,355,1.0,2.0,65,0.00,,,0.00,,2013-02-25 09:52:00,
2013-02-25 03:01:00,30.0,19.0,29.74,North,352,1.0,2.0,63,0.00,,,0.00,,2013-02-25 10:01:00,
2013-02-25 03:11:00,30.0,18.0,29.74,NNW,337,3.0,5.0,61,0.00,,,0.00,,2013-02-25 10:11:00,
2013-02-25 03:21:00,30.0,18.0,29.74,NNW,337,3.0,5.0,61,0.00,,,0.00,,2013-02-25 10:21:00,
2013-02-25 03:31:00,30.0,18.0,29.74,NNW,341,2.0,8.0,60,0.00,,,0.00,,2013-02-25 10:31:00,
2013-02-25 03:42:00,30.0,18.0,29.74,NNW,341,2.0,8.0,60,0.00,,,0.00,,2013-02-25 10:42:00,
2013-02-25 03:52:00,29.0,16.0,29.74,NW,325,3.0,8.0,59,0.00,,,0.00,,2013-02-25 10:52:00,
2013-02-25 04:01:00,29.0,16.0,29.74,NE,43,1.0,6.0,59,0.00,,,0.00,,2013-02-25 11:01:00,
2013-02-25 04:11:00,29.0,16.0,29.74,NE,43,1.0,6.0,59,0.00,,,0.00,,2013-02-25 11:11:00,
2013-02-25 04:21:00,29.0,17.0,29.74,NNW,340,1.0,4.0,61,0.00,,,0.00,,2013-02-25 11:21:00,
2013-02-25 04:32:00,28.0,16.0,29.75,NW,315,0.0,1.0,61,0.00,,,0.00,,2013-02-25 11:32:00,
2013-02-25 04:42:00,28.0,16.0,29.75,NW,315,0.0,1.0,61,0.00,,,0.00,,2013-02-25 11:42:00,
2013-02-25 04:52:00,28.0,17.0,29.76,NNW,348,1.0,3.0,62,0.00,,,0.00,,2013-02-25 11:52:00,
2013-02-25 05:02:00,27.0,16.0,29.76,North,3,2.0,3.0,62,0.00,,,0.00,,2013-02-25 12:02:00,
2013-02-25 05:11:00,27.0,16.0,29.76,North,3,2.0,3.0,62,0.00,,,0.00,,2013-02-25 12:11:00,
2013-02-25 05:21:00,27.0,16.0,29.77,North,357,0.0,5.0,62,0.00,,,0.00,,2013-02-25 12:21:00,
2013-02-25 05:32:00,27.0,16.0,29.78,North,0,0.0,2.0,62,0.00,,,0.00,,2013-02-25 12:32:00,
2013-02-25 05:42:00,27.0,16.0,29.78,North,0,0.0,2.0,62,0.00,,,0.00,,2013-02-25 12:42:00,
2013-02-25 05:55:00,26.0,15.0,29.78,NNW,327,1.0,3.0,62,0.00,,,0.00,,2013-02-25 12:55:00,
2013-02-25 06:02:00,26.0,15.0,29.79,North,357,2.0,3.0,63,0.00,,,0.00,,2013-02-25 13:02:00,
2013-02-25 06:12:00,26.0,15.0,29.79,North,357,2.0,3.0,63,0.00,,,0.00,,2013-02-25 13:12:00,
2013-02-25 06:22:00,26.0,15.0,29.79,North,352,3.0,4.0,63,0.00,,,0.00,,2013-02-25 13:22:00,
2013-02-25 06:32:00,26.0,15.0,29.79,NNE,20,1.0,4.0,63,0.00,,,0.00,,2013-02-25 13:32:00,
2013-02-25 06:42:00,26.0,15.0,29.79,NNE,20,1.0,4.0,63,0.00,,,0.00,,2013-02-25 13:42:00,
2013-02-25 06:52:00,25.0,14.0,29.80,ENE,61,1.0,2.0,63,0.00,,,0.00,,2013-02-25 13:52:00,
2013-02-25 07:03:00,25.0,14.0,29.80,NE,37,1.0,4.0,63,0.00,,,0.00,,2013-02-25 14:03:00,
2013-02-25 07:17:00,25.0,14.0,29.80,NE,37,1.0,4.0,63,0.00,,,0.00,,2013-02-25 14:17:00,
2013-02-25 07:32:00,25.0,14.0,29.81,NE,38,1.0,3.0,63,0.00,,,0.00,,2013-02-25 14:32:00,
2013-02-25 07:42:00,25.0,14.0,29.81,NE,38,1.0,3.0,63,0.00,,,0.00,,2013-02-25 14:42:00,
2013-02-25 07:52:00,25.0,14.0,29.82,East,101,1.0,1.0,63,0.00,,,0.00,,2013-02-25 14:52:00,
2013-02-25 08:02:00,26.0,15.0,29.83,North,2,1.0,4.0,62,0.00,,,0.00,,2013-02-25 15:02:00,
2013-02-25 08:11:00,26.0,15.0,29.83,North,2,1.0,4.0,62,0.00,,,0.00,,2013-02-25 15:11:00,
2013-02-25 08:21:00,27.0,15.0,29.84,North,357,1.0,5.0,61,0.00,,,0.00,,2013-02-25 15:21:00,
2013-02-25 08:32:00,28.0,15.0,29.84,North,354,3.0,5.0,58,0.00,,,0.00,,2013-02-25 15:32:00,
2013-02-25 08:41:00,28.0,15.0,29.84,North,354,3.0,5.0,58,0.00,,,0.00,,2013-02-25 15:41:00,
2013-02-25 08:52:00,28.0,15.0,29.84,North,349,4.0,6.0,57,0.00,,,0.00,,2013-02-25 15:52:00,
2013-02-25 09:01:00,29.0,16.0,29.84,NE,55,3.0,4.0,58,0.00,,,0.00,,2013-02-25 16:01:00,
2013-02-25 09:11:00,29.0,16.0,29.84,NE,55,3.0,4.0,58,0.00,,,0.00,,2013-02-25 16:11:00,
2013-02-25 09:21:00,31.0,18.0,29.85,NE,54,1.0,3.0,57,0.00,,,0.00,,2013-02-25 16:21:00,
2013-02-25 09:31:00,31.0,15.0,29.85,North,358,4.0,6.0,52,0.01,,,0.01,,2013-02-25 16:31:00,
2013-02-25 09:42:00,31.0,15.0,29.85,North,358,4.0,6.0,52,0.01,,,0.01,,2013-02-25 16:42:00,
2013-02-25 09:52:00,33.0,17.0,29.85,NNE,29,3.0,5.0,52,0.01,,,0.01,,2013-02-25 16:52:00,
2013-02-25 10:01:00,33.0,17.0,29.85,NNW,338,3.0,4.0,51,0.01,,,0.01,,2013-02-25 17:01:00,
2013-02-25 10:11:00,33.0,17.0,29.85,NNW,338,3.0,4.0,51,0.01,,,0.01,,2013-02-25 17:11:00,
2013-02-25 10:21:00,35.0,19.0,29.85,NNE,22,2.0,6.0,51,0.01,,,0.01,,2013-02-25 17:21:00,
2013-02-25 10:31:00,35.0,17.0,29.85,NNW,330,3.0,4.0,47,0.00,,,0.01,,2013-02-25 17:31:00,
2013-02-25 10:41:00,35.0,17.0,29.85,NNW,330,3.0,4.0,47,0.00,,,0.01,,2013-02-25 17:41:00,
2013-02-25 10:52:00,36.0,17.0,29.85,North,349,4.0,5.0,46,0.00,,,0.01,,2013-02-25 17:52:00,
2013-02-25 11:01:00,36.0,17.0,29.85,NNW,329,3.0,5.0,45,0.00,,,0.01,,2013-02-25 18:01:00,
2013-02-25 11:12:00,36.0,17.0,29.85,NNW,329,3.0,5.0,45,0.00,,,0.01,,2013-02-25 18:12:00,
2013-02-25 11:21:00,37.0,17.0,29.85,North,10,2.0,7.0,44,0.00,,,0.01,,2013-02-25 18:21:00,
2013-02-25 11:32:00,40.0,18.0,29.84,North,356,2.0,5.0,41,0.00,,,0.01,,2013-02-25 18:32:00,
2013-02-25 11:52:00,41.0,20.0,29.83,NE,54,2.0,4.0,43,0.00,,,0.01,,2013-02-25 18:52:00,
2013-02-25 12:01:00,42.0,18.0,29.82,West,275,2.0,4.0,38,0.00,,,0.01,,2013-02-25 19:01:00,
2013-02-25 12:21:00,43.0,17.0,29.81,North,349,5.0,8.0,34,0.00,,,0.01,,2013-02-25 19:21:00,
2013-02-25 12:31:00,42.0,14.0,29.80,NNW,333,6.0,9.0,31,0.00,,,0.01,,2013-02-25 19:31:00,
2013-02-25 12:41:00,42.0,14.0,29.80,NNW,333,6.0,9.0,31,0.00,,,0.01,,2013-02-25 19:41:00,
2013-02-25 12:52:00,44.0,13.0,29.79,NNW,331,8.0,14.0,28,0.00,,,0.01,,2013-02-25 19:52:00,
2013-02-25 13:01:00,44.0,13.0,29.79,NNW,332,5.0,14.0,28,0.01,,,0.02,,2013-02-25 20:01:00,
2013-02-25 13:11:00,44.0,13.0,29.79,NNW,332,5.0,14.0,28,0.01,,,0.02,,2013-02-25 20:11:00,
2013-02-25 13:21:00,45.0,10.0,29.77,NW,316,6.0,12.0,24,0.01,,,0.02,,2013-02-25 20:21:00,
2013-02-25 13:31:00,46.0,11.0,29.77,NW,325,7.0,9.0,24,0.01,,,0.02,,2013-02-25 20:31:00,
2013-02-25 13:41:00,46.0,11.0,29.77,NW,325,7.0,9.0,24,0.01,,,0.02,,2013-02-25 20:41:00,
2013-02-25 13:52:00,46.0,11.0,29.76,NNW,336,7.0,11.0,24,0.01,,,0.02,,2013-02-25 20:52:00,
2013-02-25 14:01:00,47.0,9.0,29.76,WNW,292,10.0,14.0,21,0.00,,,0.02,,2013-02-25 21:01:00,
2013-02-25 14:11:00,47.0,9.0,29.76,WNW,292,10.0,14.0,21,0.00,,,0.02,,2013-02-25 21:11:00,
2013-02-25 14:21:00,47.0,10.0,29.75,West,281,5.0,13.0,22,0.00,,,0.02,,2013-02-25 21:21:00,
2013-02-25 14:31:00,47.0,8.0,29.74,NW,318,8.0,14.0,20,0.00,,,0.02,,2013-02-25 21:31:00,
2013-02-25 14:42:00,47.0,8.0,29.74,NW,318,8.0,14.0,20,0.00,,,0.02,,2013-02-25 21:42:00,
2013-02-25 14:52:00,47.0,8.0,29.74,WNW,283,10.0,17.0,20,0.00,,,0.02,,2013-02-25 21:52:00,
2013-02-25 15:01:00,48.0,8.0,29.74,NW,309,8.0,13.0,19,0.00,,,0.02,,2013-02-25 22:01:00,
2013-02-25 15:11:00,48.0,8.0,29.74,NW,309,8.0,13.0,19,0.00,,,0.02,,2013-02-25 22:11:00,
2013-02-25 15:21:00,48.0,7.0,29.74,NW,318,9.0,12.0,18,0.00,,,0.02,,2013-02-25 22:21:00,
2013-02-25 15:32:00,48.0,9.0,29.74,WNW,293,8.0,15.0,20,0.00,,,0.02,,2013-02-25 22:32:00,
2013-02-25 15:42:00,48.0,9.0,29.74,WNW,293,8.0,15.0,20,0.00,,,0.02,,2013-02-25 22:42:00,
2013-02-25 15:52:00,48.0,9.0,29.73,WNW,296,12.0,15.0,20,0.00,,,0.02,,2013-02-25 22:52:00,
2013-02-25 16:01:00,48.0,7.0,29.73,West,274,9.0,13.0,18,0.00,,,0.02,,2013-02-25 23:01:00,
2013-02-25 16:11:00,48.0,7.0,29.73,West,274,9.0,13.0,18,0.00,,,0.02,,2013-02-25 23:11:00,
2013-02-25 16:22:00,48.0,7.0,29.73,NW,316,5.0,14.0,18,0.00,,,0.02,,2013-02-25 23:22:00,
2013-02-25 16:31:00,48.0,7.0,29.73,WNW,298,9.0,12.0,18,0.00,,,0.02,,2013-02-25 23:31:00,
2013-02-25 16:41:00,48.0,7.0,29.73,WNW,298,9.0,12.0,18,0.00,,,0.02,,2013-02-25 23:41:00,
2013-02-25 16:52:00,48.0,7.0,29.73,NW,321,6.0,7.0,18,0.00,,,0.02,,2013-02-25 23:52:00,
2013-02-25 17:01:00,48.0,7.0,29.73,NW,317,6.0,12.0,18,0.00,,,0.02,,2013-02-26 00:01:00,
2013-02-25 17:12:00,48.0,7.0,29.73,NW,317,6.0,12.0,18,0.00,,,0.02,,2013-02-26 00:12:00,
2013-02-25 17:22:00,48.0,7.0,29.73,NW,319,9.0,13.0,18,0.00,,,0.02,,2013-02-26 00:22:00,
2013-02-25 17:32:00,47.0,4.0,29.73,WNW,303,9.0,12.0,17,0.00,,,0.02,,2013-02-26 00:32:00,
2013-02-25 17:42:00,47.0,4.0,29.73,WNW,303,9.0,12.0,17,0.00,,,0.02,,2013-02-26 00:42:00,
2013-02-25 17:52:00,47.0,6.0,29.73,NW,321,6.0,10.0,18,0.00,,,0.02,,2013-02-26 00:52:00,
2013-02-25 18:02:00,47.0,3.0,29.73,NW,325,8.0,14.0,16,0.00,,,0.02,,2013-02-26 01:02:00,
2013-02-25 18:11:00,47.0,3.0,29.73,NW,325,8.0,14.0,16,0.00,,,0.02,,2013-02-26 01:11:00,
2013-02-25 18:21:00,46.0,4.0,29.73,NW,312,9.0,10.0,17,0.00,,,0.02,,2013-02-26 01:21:00,
2013-02-25 18:31:00,45.0,4.0,29.73,NW,307,8.0,10.0,18,0.00,,,0.02,,2013-02-26 01:31:00,
2013-02-25 18:41:00,45.0,4.0,29.73,NW,307,8.0,10.0,18,0.00,,,0.02,,2013-02-26 01:41:00,
2013-02-25 18:52:00,45.0,4.0,29.74,NNW,335,5.0,8.0,18,0.00,,,0.02,,2013-02-26 01:52:00,
2013-02-25 19:01:00,44.0,6.0,29.74,NNW,343,4.0,6.0,20,0.00,,,0.02,,2013-02-26 02:01:00,
2013-02-25 19:11:00,44.0,6.0,29.74,NNW,343,4.0,6.0,20,0.00,,,0.02,,2013-02-26 02:11:00,
2013-02-25 19:21:00,44.0,7.0,29.74,NNE,21,1.0,7.0,21,0.00,,,0.02,,2013-02-26 02:21:00,
2013-02-25 19:32:00,43.0,7.0,29.74,NE,52,2.0,3.0,22,0.00,,,0.02,,2013-02-26 02:32:00,
2013-02-25 19:41:00,43.0,7.0,29.74,NE,52,2.0,3.0,22,0.00,,,0.02,,2013-02-26 02:41:00,
2013-02-25 19:52:00,41.0,7.0,29.75,NNE,21,2.0,5.0,24,0.00,,,0.02,,2013-02-26 02:52:00,
2013-02-25 20:01:00,41.0,8.0,29.75,North,0,2.0,3.0,25,0.00,,,0.02,,2013-02-26 03:01:00,
2013-02-25 20:11:00,41.0,8.0,29.75,North,0,2.0,3.0,25,0.00,,,0.02,,2013-02-26 03:11:00,
2013-02-25 20:21:00,40.0,9.0,29.74,North,0,3.0,5.0,27,0.00,,,0.02,,2013-02-26 03:21:00,
2013-02-25 20:32:00,39.0,8.0,29.74,NE,34,1.0,5.0,27,0.00,,,0.02,,2013-02-26 03:32:00,
2013-02-25 20:41:00,39.0,8.0,29.74,NE,34,1.0,5.0,27,0.00,,,0.02,,2013-02-26 03:41:00,
2013-02-25 20:52:00,39.0,9.0,29.75,North,0,1.0,2.0,28,0.00,,,0.02,,2013-02-26 03:52:00,
2013-02-25 21:01:00,38.0,9.0,29.76,North,358,2.0,3.0,29,0.00,,,0.02,,2013-02-26 04:01:00,
2013-02-25 21:11:00,38.0,9.0,29.76,North,358,2.0,3.0,29,0.00,,,0.02,,2013-02-26 04:11:00,
2013-02-25 21:21:00,38.0,9.0,29.76,NNW,334,2.0,4.0,29,0.00,,,0.02,,2013-02-26 04:21:00,
2013-02-25 21:32:00,38.0,9.0,29.76,WNW,293,0.0,1.0,29,0.00,,,0.02,,2013-02-26 04:32:00,
2013-02-25 21:42:00,38.0,9.0,29.76,WNW,293,0.0,1.0,29,0.00,,,0.02,,2013-02-26 04:42:00,
2013-02-25 21:52:00,36.0,8.0,29.77,North,359,1.0,1.0,30,0.00,,,0.02,,2013-02-26 04:52:00,
2013-02-25 22:01:00,36.0,8.0,29.76,NNE,17,1.0,4.0,30,0.00,,,0.02,,2013-02-26 05:01:00,
2013-02-25 22:11:00,35.0,7.0,29.76,North,0,2.0,4.0,31,0.00,,,0.02,,2013-02-26 05:11:00,
2013-02-25 22:21:00,35.0,7.0,29.76,North,0,2.0,4.0,31,0.00,,,0.02,,2013-02-26 05:21:00,
2013-02-25 22:31:00,36.0,8.0,29.76,North,354,1.0,2.0,31,0.00,,,0.02,,2013-02-26 05:31:00,
2013-02-25 22:42:00,36.0,8.0,29.76,North,354,1.0,2.0,31,0.00,,,0.02,,2013-02-26 05:42:00,
2013-02-25 22:52:00,35.0,7.0,29.76,NNW,338,0.0,2.0,31,0.00,,,0.02,,2013-02-26 05:52:00,
2013-02-25 23:01:00,35.0,7.0,29.76,North,5,0.0,1.0,31,0.00,,,0.02,,2013-02-26 06:01:00,
2013-02-25 23:11:00,35.0,7.0,29.76,North,5,0.0,1.0,31,0.00,,,0.02,,2013-02-26 06:11:00,
2013-02-25 23:21:00,34.0,7.0,29.76,SW,225,1.0,1.0,32,0.00,,,0.02,,2013-02-26 06:21:00,
2013-02-25 23:31:00,32.0,7.0,29.75,East,90,1.0,1.0,35,0.00,,,0.02,,2013-02-26 06:31:00,
2013-02-25 23:41:00,32.0,7.0,29.75,East,90,1.0,1.0,35,0.00,,,0.02,,2013-02-26 06:41:00,
2013-02-25 23:51:00,31.0,8.0,29.74,WSW,248,0.0,1.0,37,0.00,,,0.02,,2013-02-26 06:51:00,